Terminal Aerodrome Forecast
Issued by NWS

Home | Current Version | Previous Version | Graphics & Text | Print | Product List | Glossary On
Versions: 1 2 3 4 5 6 7 8 9 10 11 12 13 14 15 16 17 18 19 20 21
000
FTUS43 KICT 010531
TAFSLN
TAF
KSLN 010531Z 0106/0206 VRB03KT P6SM OVC030
      TEMPO 0109/0113 3SM -SN OVC012
     FM011500 35006KT P6SM SCT020 BKN130
     FM012300 05004KT P6SM BKN130=

USA.gov is the U.S. government's official web portal to all federal, state and local government web resources and services.